Time;durP1;ratioP1;P1;durP2;ratioP2;P2;SDS_P1;SDS_P2;PMS_P1;PMS_P2;Temp;Humidity;BMP_temperature;BMP_pressure;BME280_temperature;BME280_humidity;BME280_pressure;Samples;Min_cycle;Max_cycle;Signal;HPM_P1;HPM_P2
2023/10/19 00:00:50;;;;;;;56.42;6.38;;;15.40;99.90;;;;;;5009735;28;20398;-75
2023/10/19 00:03:17;;;;;;;49.75;5.20;;;15.40;99.90;;;;;;5000799;28;20026;-74
2023/10/19 00:05:45;;;;;;;45.92;5.25;;;15.40;99.90;;;;;;5018251;28;20437;-75
2023/10/19 00:10:39;;;;;;;43.15;4.60;;;15.40;99.90;;;;;;5010918;28;20053;-74
2023/10/19 00:13:06;;;;;;;57.95;5.38;;;15.50;99.90;;;;;;5004040;28;20029;-74
2023/10/19 00:15:34;;;;;;;34.95;4.47;;;15.50;99.90;;;;;;5013380;28;20079;-73
2023/10/19 00:18:19;;;;;;;35.92;5.10;;;15.60;99.90;;;;;;5006049;28;21295;-72
2023/10/19 00:23:18;;;;;;;38.22;5.15;;;15.70;99.90;;;;;;4998176;28;20386;-73
2023/10/19 00:25:44;;;;;;;54.08;5.63;;;15.80;99.90;;;;;;5014283;28;20676;-74
2023/10/19 00:28:12;;;;;;;48.95;5.00;;;15.80;99.90;;;;;;5005272;28;20033;-74
2023/10/19 00:30:42;;;;;;;39.25;4.50;;;15.80;99.90;;;;;;5012245;28;20083;-74
2023/10/19 00:33:16;;;;;;;57.40;6.03;;;15.90;99.90;;;;;;5003018;28;20022;-74
2023/10/19 00:35:46;;;;;;;43.47;4.97;;;15.90;99.90;;;;;;5015216;28;20045;-74
2023/10/19 00:38:30;;;;;;;48.95;4.20;;;15.90;99.90;;;;;;5001410;28;20988;-74
2023/10/19 00:40:59;;;;;;;44.30;5.07;;;15.90;99.90;;;;;;5010924;28;20067;-74
2023/10/19 00:43:28;;;;;;;34.30;4.90;;;16.00;99.90;;;;;;4998474;28;20100;-73
2023/10/19 00:45:54;;;;;;;35.60;4.30;;;16.00;99.90;;;;;;5017585;28;20531;-74
2023/10/19 00:48:26;;;;;;;43.88;4.55;;;16.00;99.90;;;;;;5003869;28;20040;-74
2023/10/19 00:50:54;;;;;;;46.83;4.93;;;16.00;99.90;;;;;;5014118;28;20726;-74
2023/10/19 00:53:20;;;;;;;38.97;4.30;;;16.10;99.90;;;;;;5010069;28;20033;-74
2023/10/19 00:55:46;;;;;;;39.85;4.30;;;16.10;99.90;;;;;;5008762;28;20422;-74
2023/10/19 00:58:17;;;;;;;47.00;4.97;;;16.10;99.90;;;;;;5012152;28;20041;-74
2023/10/19 01:00:44;;;;;;;34.45;4.45;;;16.10;99.90;;;;;;5001330;28;20517;-75
2023/10/19 01:03:16;;;;;;;43.90;6.50;;;16.10;99.90;;;;;;5008742;28;20041;-75
2023/10/19 01:05:47;;;;;;;42.70;4.00;;;16.20;99.90;;;;;;5006988;28;20124;-75
2023/10/19 01:08:23;;;;;;;54.92;5.53;;;16.20;99.90;;;;;;5014467;28;20500;-75
2023/10/19 01:10:52;;;;;;;48.10;5.20;;;16.10;99.90;;;;;;4998787;28;20047;-73
2023/10/19 01:13:26;;;;;;;60.42;6.35;;;16.10;99.90;;;;;;5012453;28;20028;-74
2023/10/19 01:15:52;;;;;;;51.97;5.07;;;16.10;99.90;;;;;;4997971;28;20045;-73
2023/10/19 01:18:18;;;;;;;59.55;5.70;;;16.10;99.90;;;;;;5017833;28;20037;-73
2023/10/19 01:20:52;;;;;;;39.67;5.05;;;16.10;99.90;;;;;;5006778;28;20076;-73
2023/10/19 01:23:25;;;;;;;38.22;3.83;;;16.10;99.90;;;;;;5013282;28;20069;-73
2023/10/19 01:28:18;;;;;;;40.42;4.55;;;16.10;99.90;;;;;;5013716;28;20418;-74
2023/10/19 01:30:45;;;;;;;43.13;3.78;;;16.10;99.90;;;;;;4998776;28;20045;-74
2023/10/19 01:33:15;;;;;;;34.05;3.85;;;16.20;99.90;;;;;;5011772;28;20041;-73
2023/10/19 01:36:50;;;;;;;37.13;4.32;;;16.10;99.90;;;;;;5002038;28;20049;-74
2023/10/19 01:38:31;;;;;;;38.58;3.85;;;16.20;99.90;;;;;;5014103;28;20452;-74
2023/10/19 01:40:59;;;;;;;32.50;4.10;;;16.20;99.90;;;;;;4998855;28;20033;-74
2023/10/19 01:43:30;;;;;;;37.22;4.43;;;16.20;99.90;;;;;;5012789;28;20138;-74
2023/10/19 01:45:58;;;;;;;35.20;3.97;;;16.20;99.90;;;;;;5003392;28;20079;-74
2023/10/19 01:48:33;;;;;;;36.55;4.35;;;16.20;99.90;;;;;;5019517;28;20032;-75
2023/10/19 01:51:04;;;;;;;36.47;5.20;;;16.20;99.90;;;;;;5004664;28;20026;-75
2023/10/19 01:53:29;;;;;;;40.97;5.53;;;16.30;99.90;;;;;;5016337;28;20088;-74
2023/10/19 01:55:58;;;;;;;31.83;4.22;;;16.30;99.90;;;;;;5000877;28;20115;-75
2023/10/19 02:00:11;;;;;;;32.20;4.93;;;16.30;99.90;;;;;;5010591;28;20029;-75
2023/10/19 02:01:49;;;;;;;40.97;5.32;;;16.30;99.90;;;;;;4992692;28;20140;-75
2023/10/19 02:04:15;;;;;;;45.03;3.92;;;16.20;99.90;;;;;;5000254;28;21259;-75
2023/10/19 02:06:41;;;;;;;37.92;4.57;;;16.20;99.90;;;;;;5000514;28;20025;-76
2023/10/19 02:09:42;;;;;;;29.55;4.32;;;16.20;99.90;;;;;;5008211;28;20029;-73
2023/10/19 02:11:57;;;;;;;39.30;4.75;;;16.10;99.90;;;;;;4994089;28;20757;-74
2023/10/19 02:14:25;;;;;;;37.00;4.38;;;16.10;99.90;;;;;;5009621;28;20033;-73
2023/10/19 02:16:56;;;;;;;37.05;4.13;;;16.10;99.90;;;;;;4998329;28;20092;-76
2023/10/19 02:19:24;;;;;;;34.78;4.38;;;16.00;99.90;;;;;;5015482;28;20087;-75
2023/10/19 02:21:52;;;;;;;38.07;4.03;;;16.00;99.90;;;;;;4998221;28;20044;-75
2023/10/19 02:24:18;;;;;;;41.00;4.20;;;16.00;99.90;;;;;;5008627;28;20369;-75
2023/10/19 02:26:46;;;;;;;41.88;4.45;;;16.00;99.90;;;;;;5003175;28;20952;-75
2023/10/19 02:29:13;;;;;;;35.17;4.43;;;16.10;99.90;;;;;;5011010;28;20477;-75
2023/10/19 02:31:41;;;;;;;31.33;3.95;;;16.10;99.90;;;;;;5002845;28;20045;-74
2023/10/19 02:34:10;;;;;;;35.45;4.68;;;16.20;99.90;;;;;;5013129;28;20044;-74
2023/10/19 02:36:37;;;;;;;33.25;3.65;;;16.10;99.90;;;;;;5009911;28;20053;-73
2023/10/19 02:39:07;;;;;;;38.70;3.65;;;16.10;99.90;;;;;;5000415;28;20040;-74
2023/10/19 02:41:35;;;;;;;36.97;3.55;;;16.10;99.90;;;;;;5012777;28;20079;-75
2023/10/19 02:44:05;;;;;;;48.15;4.78;;;16.10;99.90;;;;;;4995765;28;20033;-74
2023/10/19 02:46:32;;;;;;;32.58;4.38;;;16.10;99.90;;;;;;5014529;28;20057;-74
2023/10/19 02:49:03;;;;;;;27.65;3.60;;;16.20;99.90;;;;;;5003321;28;20037;-74
2023/10/19 02:51:29;;;;;;;38.17;4.00;;;16.30;99.90;;;;;;5015338;28;20932;-74
2023/10/19 02:53:57;;;;;;;37.97;4.13;;;16.20;99.90;;;;;;5004319;28;20485;-74
2023/10/19 02:56:23;;;;;;;38.50;4.75;;;16.30;99.90;;;;;;5012048;28;20080;-75
2023/10/19 02:58:49;;;;;;;30.08;4.25;;;16.30;99.90;;;;;;5002216;28;20029;-74
2023/10/19 03:01:21;;;;;;;45.13;3.75;;;16.40;99.90;;;;;;5011153;28;20037;-74
2023/10/19 03:03:50;;;;;;;33.55;4.80;;;16.40;99.90;;;;;;4998679;28;20029;-74
2023/10/19 03:06:20;;;;;;;40.83;5.63;;;16.40;99.90;;;;;;5017655;28;20428;-74
2023/10/19 03:08:46;;;;;;;;;;;16.50;99.90;;;;;;5000030;28;20413;-74
2023/10/19 03:11:13;;;;;;;36.40;4.53;;;16.50;99.90;;;;;;5012816;28;21101;-76
2023/10/19 03:13:40;;;;;;;53.03;6.43;;;16.50;99.90;;;;;;5002179;28;20030;-76
2023/10/19 03:16:07;;;;;;;36.75;4.15;;;16.50;99.90;;;;;;5010002;28;20056;-76
2023/10/19 03:18:36;;;;;;;44.22;4.68;;;16.50;99.90;;;;;;5003210;28;20076;-75
2023/10/19 03:21:03;;;;;;;50.22;5.28;;;16.50;99.90;;;;;;5014462;28;20527;-75
2023/10/19 03:23:28;;;;;;;46.20;5.25;;;16.50;99.90;;;;;;4996699;28;20756;-75
2023/10/19 03:26:30;;;;;;;46.45;5.30;;;16.50;99.90;;;;;;5015359;28;20119;-75
2023/10/19 03:28:43;;;;;;;43.83;5.05;;;16.50;99.90;;;;;;5001393;28;21018;-74
2023/10/19 03:31:13;;;;;;;45.22;5.32;;;16.60;99.90;;;;;;5008326;28;20541;-74
2023/10/19 03:33:40;;;;;;;35.08;4.63;;;16.60;99.90;;;;;;5007794;28;20044;-74
2023/10/19 03:36:12;;;;;;;52.05;5.45;;;16.60;99.90;;;;;;5013387;28;21198;-75
2023/10/19 03:38:40;;;;;;;42.10;5.78;;;16.60;99.90;;;;;;5014492;28;20116;-75
2023/10/19 03:41:07;;;;;;;50.50;4.88;;;16.60;99.90;;;;;;5009015;28;20030;-73
2023/10/19 03:43:34;;;;;;;37.00;4.53;;;16.60;99.90;;;;;;5012450;28;20029;-75
2023/10/19 03:46:06;;;;;;;60.33;5.80;;;16.60;99.90;;;;;;5012048;28;20029;-74
2023/10/19 03:48:37;;;;;;;45.38;5.93;;;16.50;99.90;;;;;;5025762;28;20029;-74
2023/10/19 03:51:04;;;;;;;52.55;6.78;;;16.40;99.90;;;;;;5023784;28;20033;-74
2023/10/19 03:53:31;;;;;;;43.42;4.80;;;16.50;99.90;;;;;;5032885;28;20503;-73
2023/10/19 03:55:57;;;;;;;43.03;6.00;;;16.50;99.90;;;;;;5024263;28;20090;-74
2023/10/19 03:58:23;;;;;;;37.17;4.85;;;16.60;99.90;;;;;;5029341;28;20524;-75
2023/10/19 04:00:49;;;;;;;55.55;5.28;;;16.60;99.90;;;;;;5024511;28;20104;-75
2023/10/19 04:03:17;;;;;;;46.55;5.78;;;16.60;99.90;;;;;;5026482;28;20033;-75
2023/10/19 04:05:46;;;;;;;44.55;6.03;;;16.50;99.90;;;;;;5022326;28;20013;-75
2023/10/19 04:08:14;;;;;;;47.88;5.93;;;16.50;99.90;;;;;;5030792;28;20034;-75
2023/10/19 04:10:44;;;;;;;36.72;6.07;;;16.50;99.90;;;;;;5020872;28;20024;-75
2023/10/19 04:13:11;;;;;;;64.10;5.95;;;16.60;99.90;;;;;;5028179;28;20388;-75
2023/10/19 04:15:36;;;;;;;49.58;5.45;;;16.50;99.90;;;;;;5022856;28;20068;-75
2023/10/19 04:18:10;;;;;;;46.15;5.50;;;16.50;99.90;;;;;;5026395;28;20081;-75
2023/10/19 04:20:55;;;;;;;51.15;5.70;;;16.40;99.90;;;;;;5022153;28;20037;-75
2023/10/19 04:23:26;;;;;;;50.03;6.35;;;16.50;99.90;;;;;;5026268;28;20493;-75
2023/10/19 04:25:53;;;;;;;47.50;7.30;;;16.50;99.90;;;;;;5023845;28;20080;-75
2023/10/19 04:28:30;;;;;;;52.08;7.13;;;16.50;99.90;;;;;;5031371;28;20025;-75
2023/10/19 04:31:02;;;;;;;44.83;8.38;;;16.50;99.90;;;;;;5007072;28;20037;-75
2023/10/19 04:33:29;;;;;;;47.58;6.55;;;16.50;99.90;;;;;;5017687;28;20033;-76
2023/10/19 04:35:55;;;;;;;46.97;5.82;;;16.50;99.90;;;;;;5005923;28;20183;-76
2023/10/19 04:38:23;;;;;;;45.47;7.22;;;16.60;99.90;;;;;;5013337;28;20034;-75
2023/10/19 04:40:49;;;;;;;41.90;5.95;;;16.60;99.90;;;;;;5012874;28;20036;-75
2023/10/19 04:43:16;;;;;;;51.38;6.60;;;16.60;99.90;;;;;;5013228;28;20244;-75
2023/10/19 04:45:44;;;;;;;52.83;6.45;;;16.50;99.90;;;;;;5017823;28;20033;-75
2023/10/19 04:48:10;;;;;;;41.80;5.63;;;16.50;99.90;;;;;;5006154;28;20072;-74
2023/10/19 04:50:36;;;;;;;49.53;5.80;;;16.50;99.90;;;;;;5011014;28;20567;-75
2023/10/19 04:53:02;;;;;;;46.85;6.50;;;16.50;99.90;;;;;;5005548;28;20045;-75
2023/10/19 04:55:30;;;;;;;45.30;6.35;;;16.60;99.90;;;;;;5021303;28;20489;-75
2023/10/19 04:57:56;;;;;;;37.83;6.55;;;16.60;99.90;;;;;;5000628;28;20034;-75
2023/10/19 05:00:24;;;;;;;52.83;6.97;;;16.60;99.80;;;;;;5016742;28;20041;-76
2023/10/19 05:02:51;;;;;;;39.00;5.07;;;16.60;99.90;;;;;;5001785;28;20029;-75
2023/10/19 05:05:18;;;;;;;48.28;5.80;;;16.60;99.90;;;;;;5018589;28;20061;-75
2023/10/19 05:07:43;;;;;;;48.65;5.95;;;16.50;99.90;;;;;;5005969;28;20505;-75
2023/10/19 05:10:11;;;;;;;36.60;4.85;;;16.40;99.90;;;;;;5008706;28;20021;-75
2023/10/19 05:12:36;;;;;;;51.38;6.03;;;16.40;99.90;;;;;;5004293;28;20167;-74
2023/10/19 05:15:02;;;;;;;56.42;5.90;;;16.40;99.90;;;;;;5019189;28;20072;-75
2023/10/19 05:17:28;;;;;;;55.33;6.95;;;16.30;99.90;;;;;;5001417;28;20095;-75
2023/10/19 05:19:53;;;;;;;53.08;5.65;;;16.30;99.90;;;;;;5007770;28;20064;-75
2023/10/19 05:22:21;;;;;;;57.88;7.20;;;16.30;99.90;;;;;;5002493;28;20171;-75
2023/10/19 05:24:47;;;;;;;45.38;5.95;;;16.40;99.90;;;;;;5012718;28;20041;-75
2023/10/19 05:27:13;;;;;;;41.50;7.32;;;16.40;99.90;;;;;;5001457;28;20029;-76
2023/10/19 05:29:39;;;;;;;41.63;5.15;;;16.50;99.90;;;;;;5000941;28;20025;-76
2023/10/19 05:32:05;;;;;;;49.92;5.70;;;16.60;99.70;;;;;;5007449;28;20029;-76
2023/10/19 05:34:34;;;;;;;46.65;5.28;;;16.60;99.90;;;;;;5002021;28;20087;-77
2023/10/19 05:37:02;;;;;;;;;;;16.60;99.70;;;;;;5009448;28;20029;-74
2023/10/19 05:39:28;;;;;;;41.08;7.22;;;16.50;99.90;;;;;;5003428;28;19928;-73
2023/10/19 05:41:55;;;;;;;48.85;6.45;;;16.60;99.80;;;;;;5011352;28;20116;-75
2023/10/19 05:44:21;;;;;;;42.60;5.40;;;16.50;99.90;;;;;;5003128;28;20535;-75
2023/10/19 05:46:46;;;;;;;48.35;6.45;;;16.50;99.90;;;;;;5017549;28;20026;-76
2023/10/19 05:49:12;;;;;;;48.83;5.35;;;16.50;99.90;;;;;;5004005;28;20034;-76
2023/10/19 05:51:39;;;;;;;44.20;5.60;;;16.50;99.90;;;;;;5008918;28;20121;-76
2023/10/19 05:54:05;;;;;;;47.28;5.53;;;16.50;99.90;;;;;;5004364;28;20044;-76
2023/10/19 05:56:31;;;;;;;46.97;6.05;;;16.50;99.90;;;;;;5015890;28;20038;-76
2023/10/19 05:58:58;;;;;;;51.95;6.30;;;16.40;99.90;;;;;;5000962;28;20037;-76
2023/10/19 06:01:24;;;;;;;54.03;6.60;;;16.50;99.90;;;;;;5015705;28;20034;-76
2023/10/19 06:03:50;;;;;;;61.08;6.95;;;16.50;99.90;;;;;;4991372;28;20037;-77
2023/10/19 06:06:20;;;;;;;40.28;5.70;;;16.50;99.90;;;;;;5010153;28;20037;-76
2023/10/19 06:08:46;;;;;;;60.40;6.68;;;16.60;99.90;;;;;;5004711;28;20082;-75
2023/10/19 06:11:13;;;;;;;60.05;6.55;;;16.60;99.90;;;;;;5005125;28;20037;-75
2023/10/19 06:13:38;;;;;;;51.67;5.38;;;16.60;99.90;;;;;;4996474;28;20029;-76
2023/10/19 06:16:04;;;;;;;57.70;7.10;;;16.60;99.80;;;;;;5001413;28;20095;-76
2023/10/19 06:18:30;;;;;;;37.10;6.22;;;16.60;99.80;;;;;;5012580;28;20071;-75
2023/10/19 06:20:56;;;;;;;40.00;6.15;;;16.60;99.70;;;;;;5005223;28;20116;-75
2023/10/19 06:23:21;;;;;;;54.38;7.65;;;16.60;99.60;;;;;;5007652;28;20139;-76
2023/10/19 06:25:47;;;;;;;43.05;6.65;;;16.60;99.80;;;;;;5003121;28;20068;-76
2023/10/19 06:28:13;;;;;;;39.63;4.63;;;16.60;99.60;;;;;;5016635;28;20037;-76
2023/10/19 06:30:40;;;;;;;37.63;4.47;;;16.60;99.70;;;;;;4993990;28;20045;-76
2023/10/19 06:33:06;;;;;;;45.72;5.63;;;16.50;99.50;;;;;;5000306;28;20211;-76
2023/10/19 06:35:33;;;;;;;46.92;5.13;;;16.50;99.80;;;;;;4992332;28;20062;-75
2023/10/19 06:38:00;;;;;;;47.22;7.45;;;16.50;99.90;;;;;;5001483;28;21129;-76
2023/10/19 06:40:27;;;;;;;42.00;4.95;;;16.50;99.90;;;;;;4997609;28;20088;-76
2023/10/19 06:42:56;;;;;;;44.25;5.70;;;16.50;99.90;;;;;;5008460;28;20040;-76
2023/10/19 06:45:22;;;;;;;47.90;5.55;;;16.50;99.90;;;;;;4994741;28;20040;-76
2023/10/19 06:47:49;;;;;;;41.00;5.13;;;16.50;99.90;;;;;;5004618;28;20106;-77
2023/10/19 06:50:17;;;;;;;40.45;4.65;;;16.60;99.70;;;;;;4993665;28;20039;-74
2023/10/19 06:52:46;;;;;;;46.08;5.05;;;16.60;99.80;;;;;;5004052;28;20164;-74
2023/10/19 06:55:13;;;;;;;38.83;4.75;;;16.50;99.70;;;;;;5008581;28;20044;-72
2023/10/19 06:57:43;;;;;;;45.08;5.40;;;16.60;99.50;;;;;;4997415;28;20101;-73
2023/10/19 07:00:14;;;;;;;43.97;4.88;;;16.60;99.40;;;;;;5004756;28;20929;-74
2023/10/19 07:02:42;;;;;;;42.15;5.55;;;16.60;99.30;;;;;;4997021;28;20044;-74
2023/10/19 07:05:11;;;;;;;41.35;4.43;;;16.60;99.20;;;;;;4997152;28;20072;-75
2023/10/19 07:07:41;;;;;;;41.55;6.13;;;16.60;99.20;;;;;;4998074;28;20042;-74
2023/10/19 07:10:08;;;;;;;40.60;5.35;;;16.70;99.10;;;;;;5002445;28;20040;-74
2023/10/19 07:12:35;;;;;;;36.45;3.38;;;16.70;98.80;;;;;;4984914;28;20394;-74
2023/10/19 07:15:03;;;;;;;31.85;3.92;;;16.70;98.40;;;;;;5005687;28;20371;-74
2023/10/19 07:17:29;;;;;;;31.20;5.05;;;16.80;98.20;;;;;;4995834;28;20505;-74
2023/10/19 07:19:54;;;;;;;34.40;5.10;;;16.80;98.20;;;;;;5003565;28;20048;-74
2023/10/19 07:22:22;;;;;;;40.17;4.43;;;16.80;98.40;;;;;;4985315;28;20029;-74
2023/10/19 07:24:48;;;;;;;27.92;4.22;;;16.80;98.30;;;;;;4996783;28;20653;-73
2023/10/19 07:27:18;;;;;;;33.03;4.07;;;16.90;98.30;;;;;;4981033;28;20341;-73
2023/10/19 07:29:45;;;;;;;28.17;4.18;;;16.90;98.30;;;;;;5001456;28;20044;-71
2023/10/19 07:32:13;;;;;;;35.95;4.20;;;17.00;98.30;;;;;;4987821;28;20053;-73
2023/10/19 07:34:39;;;;;;;48.67;5.90;;;17.00;98.60;;;;;;5005536;28;20029;-73
2023/10/19 07:37:07;;;;;;;35.08;4.60;;;17.00;98.60;;;;;;4992014;28;20731;-72
2023/10/19 07:39:33;;;;;;;50.25;5.82;;;17.00;98.70;;;;;;5004393;28;20075;-72
2023/10/19 07:41:59;;;;;;;44.78;6.22;;;17.00;99.00;;;;;;4998948;28;20136;-73
2023/10/19 07:44:25;;;;;;;47.10;4.93;;;17.00;99.00;;;;;;4987919;28;20039;-73
2023/10/19 07:46:52;;;;;;;32.20;4.38;;;17.00;98.80;;;;;;4994374;28;20578;-72
2023/10/19 07:49:18;;;;;;;38.72;5.68;;;16.90;98.70;;;;;;4987697;28;20184;-73
2023/10/19 07:51:47;;;;;;;30.90;5.13;;;17.00;98.50;;;;;;4994263;28;20052;-72
2023/10/19 07:54:13;;;;;;;39.30;5.45;;;17.00;98.50;;;;;;4984247;28;20490;-72
2023/10/19 07:56:39;;;;;;;37.30;5.00;;;16.90;98.50;;;;;;4997752;28;20041;-73
2023/10/19 07:59:08;;;;;;;36.28;4.40;;;16.90;98.30;;;;;;4985135;28;20091;-72
2023/10/19 08:01:33;;;;;;;41.90;4.82;;;17.00;98.40;;;;;;5002469;28;20160;-71
2023/10/19 08:03:59;;;;;;;43.30;5.40;;;17.00;98.20;;;;;;4989654;28;20037;-72
2023/10/19 08:06:26;;;;;;;37.55;5.00;;;17.10;98.10;;;;;;5004350;28;20040;-71
2023/10/19 08:08:52;;;;;;;42.67;4.68;;;17.10;98.30;;;;;;4991885;28;20032;-72
2023/10/19 08:11:18;;;;;;;40.22;4.75;;;17.10;98.20;;;;;;4989740;28;20163;-72
2023/10/19 08:13:44;;;;;;;45.80;5.75;;;17.10;98.20;;;;;;4989741;28;20376;-72
2023/10/19 08:16:12;;;;;;;41.67;5.95;;;17.10;98.30;;;;;;5002720;28;20095;-71
2023/10/19 08:18:37;;;;;;;45.42;6.07;;;17.10;98.00;;;;;;4985376;28;20492;-73
2023/10/19 08:21:03;;;;;;;49.22;4.97;;;17.20;98.00;;;;;;5001691;28;20049;-72
2023/10/19 08:23:33;;;;;;;47.13;6.28;;;17.30;97.80;;;;;;5001421;28;20391;-73
2023/10/19 08:25:59;;;;;;;35.53;4.88;;;17.40;97.70;;;;;;5006339;28;20032;-74
2023/10/19 08:28:25;;;;;;;32.03;4.75;;;17.30;97.60;;;;;;4999765;28;20029;-73
2023/10/19 08:31:06;;;;;;;43.08;4.57;;;17.20;97.70;;;;;;5007025;28;20022;-72
2023/10/19 08:33:33;;;;;;;39.95;4.90;;;17.10;98.00;;;;;;5012065;28;20025;-73
2023/10/19 08:36:00;;;;;;;33.80;4.75;;;17.00;98.10;;;;;;5009413;28;20057;-74
2023/10/19 08:38:26;;;;;;;37.72;5.55;;;17.00;98.30;;;;;;4993384;28;21377;-72
2023/10/19 08:40:52;;;;;;;38.13;5.20;;;17.00;98.10;;;;;;4993061;28;20045;-73
2023/10/19 08:43:18;;;;;;;33.58;4.30;;;17.00;98.30;;;;;;5000007;28;20571;-73
2023/10/19 08:45:45;;;;;;;34.50;4.60;;;17.10;97.80;;;;;;4992334;28;20065;-71
2023/10/19 08:48:11;;;;;;;47.72;5.00;;;17.10;97.70;;;;;;5003829;28;20091;-73
2023/10/19 08:50:37;;;;;;;43.22;5.03;;;17.20;97.80;;;;;;4992318;28;20406;-75
2023/10/19 08:53:05;;;;;;;27.63;3.58;;;17.30;97.20;;;;;;5011873;28;20061;-73
2023/10/19 08:55:31;;;;;;;32.70;3.58;;;17.30;97.10;;;;;;4994826;28;20049;-74
2023/10/19 08:58:00;;;;;;;34.08;3.90;;;17.30;97.10;;;;;;5014656;28;20029;-74
2023/10/19 09:00:27;;;;;;;30.58;4.13;;;17.30;97.00;;;;;;5008435;28;20188;-73
2023/10/19 09:02:56;;;;;;;29.20;3.45;;;17.30;97.00;;;;;;5014975;28;20041;-74
2023/10/19 09:05:22;;;;;;;35.70;4.95;;;17.40;97.30;;;;;;4999430;28;20037;-74
2023/10/19 09:07:54;;;;;;;24.85;3.33;;;17.30;97.20;;;;;;5020265;28;20626;-74
2023/10/19 09:10:22;;;;;;;41.00;4.70;;;17.30;97.00;;;;;;5005180;28;21092;-74
2023/10/19 09:13:07;;;;;;;33.47;3.97;;;17.40;97.20;;;;;;5001999;28;20982;-73
2023/10/19 09:15:35;;;;;;;35.00;4.90;;;17.70;96.50;;;;;;5000375;28;20062;-73
2023/10/19 09:18:16;;;;;;;30.60;4.70;;;17.80;96.30;;;;;;5013650;28;20041;-75
2023/10/19 09:20:52;;;;;;;35.75;3.80;;;17.90;96.10;;;;;;5013471;28;20037;-73
2023/10/19 09:23:20;;;;;;;35.72;4.03;;;18.10;95.70;;;;;;5023575;28;20029;-72
2023/10/19 09:25:49;;;;;;;36.47;4.55;;;18.30;95.20;;;;;;5003352;28;20040;-73
2023/10/19 09:28:15;;;;;;;;;;;18.50;95.10;;;;;;5010207;28;20029;-74
2023/10/19 09:30:43;;;;;;;28.45;3.58;;;18.60;94.70;;;;;;4996861;28;19924;-74
2023/10/19 09:33:09;;;;;;;37.95;4.57;;;18.50;94.50;;;;;;5006254;28;20037;-77
2023/10/19 09:35:38;;;;;;;25.85;3.63;;;18.40;94.90;;;;;;5010798;28;20515;-73
2023/10/19 09:38:06;;;;;;;28.77;4.13;;;18.40;94.70;;;;;;5005223;28;20035;-75
2023/10/19 09:40:33;;;;;;;32.63;4.47;;;18.30;94.90;;;;;;5008560;28;20037;-72
2023/10/19 09:43:00;;;;;;;29.20;4.47;;;18.20;95.10;;;;;;4999488;28;20778;-74
2023/10/19 09:45:30;;;;;;;26.60;3.60;;;18.20;95.30;;;;;;5004661;28;20056;-74
2023/10/19 09:47:56;;;;;;;26.30;3.92;;;18.30;95.00;;;;;;5009994;28;20034;-76
2023/10/19 09:50:22;;;;;;;33.78;4.15;;;18.30;94.80;;;;;;5010905;28;20037;-76
2023/10/19 09:52:49;;;;;;;21.05;3.25;;;18.30;94.80;;;;;;4997890;28;20045;-75
2023/10/19 09:55:29;;;;;;;34.10;3.92;;;18.10;95.10;;;;;;5015185;28;20059;-76
2023/10/19 09:58:02;;;;;;;28.88;3.67;;;18.10;95.40;;;;;;4997859;28;20061;-76
2023/10/19 10:00:31;;;;;;;24.27;3.75;;;18.00;95.40;;;;;;5010802;28;20037;-76
2023/10/19 10:02:57;;;;;;;30.90;3.67;;;18.00;95.50;;;;;;5000188;28;20052;-76
2023/10/19 10:05:43;;;;;;;30.15;3.78;;;17.90;95.40;;;;;;5009508;28;20053;-76
2023/10/19 10:08:30;;;;;;;44.63;4.30;;;17.80;95.90;;;;;;5005046;28;20871;-76
2023/10/19 10:10:56;;;;;;;26.55;3.95;;;17.70;96.10;;;;;;5006892;28;20775;-73
2023/10/19 10:13:40;;;;;;;27.98;4.32;;;17.50;96.40;;;;;;4998057;28;20034;-74
2023/10/19 10:16:06;;;;;;;27.35;3.65;;;17.50;96.60;;;;;;5007625;28;20049;-74
2023/10/19 10:18:34;;;;;;;27.77;3.95;;;17.50;96.50;;;;;;4996635;28;20592;-73
2023/10/19 10:21:21;;;;;;;31.88;4.38;;;17.70;96.30;;;;;;5012080;28;20489;-74
2023/10/19 10:23:49;;;;;;;31.75;3.83;;;17.90;95.90;;;;;;4999191;28;20032;-73
2023/10/19 10:26:16;;;;;;;22.45;3.17;;;18.00;95.70;;;;;;5005516;28;20037;-73
2023/10/19 10:28:47;;;;;;;25.52;3.55;;;18.20;95.30;;;;;;5000534;28;20174;-73
2023/10/19 10:31:13;;;;;;;21.23;3.55;;;18.30;95.10;;;;;;5010982;28;20442;-73
2023/10/19 10:33:42;;;;;;;26.38;3.40;;;18.50;94.80;;;;;;4996651;28;20033;-72
2023/10/19 10:36:08;;;;;;;24.02;3.95;;;18.50;94.80;;;;;;5011717;28;20090;-76
2023/10/19 10:38:35;;;;;;;25.50;3.63;;;18.50;94.60;;;;;;5000705;28;20048;-75
2023/10/19 10:41:01;;;;;;;38.10;5.10;;;18.50;94.40;;;;;;5006882;28;20226;-71
2023/10/19 10:43:27;;;;;;;31.38;3.75;;;18.30;94.60;;;;;;5000496;28;20068;-72
2023/10/19 10:46:03;;;;;;;41.95;4.38;;;18.30;94.80;;;;;;5001145;28;20840;-73
2023/10/19 10:48:29;;;;;;;32.63;3.75;;;18.10;95.10;;;;;;4996850;28;20033;-72
2023/10/19 10:50:55;;;;;;;27.98;3.80;;;18.00;95.40;;;;;;5004069;28;20370;-72
2023/10/19 10:53:24;;;;;;;37.03;4.47;;;17.90;95.50;;;;;;4993324;28;20092;-74
2023/10/19 10:55:51;;;;;;;25.80;3.67;;;17.90;95.50;;;;;;5008582;28;20034;-72
2023/10/19 10:58:17;;;;;;;29.58;3.85;;;18.20;95.60;;;;;;5001791;28;20490;-75
2023/10/19 11:00:46;;;;;;;23.40;4.05;;;18.50;95.00;;;;;;4999425;28;20044;-72
2023/10/19 11:03:13;;;;;;;25.45;3.80;;;18.60;94.30;;;;;;5003441;28;20033;-73
2023/10/19 11:05:39;;;;;;;22.33;3.40;;;18.70;94.40;;;;;;4995278;28;20086;-74
2023/10/19 11:08:09;;;;;;;33.65;3.88;;;18.80;93.80;;;;;;5012609;28;20033;-73
2023/10/19 11:10:36;;;;;;;32.33;5.00;;;19.00;93.60;;;;;;4994293;28;20791;-73
2023/10/19 11:13:03;;;;;;;28.80;3.92;;;18.80;93.80;;;;;;5002521;28;20087;-74
2023/10/19 11:15:28;;;;;;;26.52;4.10;;;18.90;93.80;;;;;;4994276;28;20025;-73
2023/10/19 11:17:54;;;;;;;32.95;4.07;;;18.90;93.70;;;;;;5006559;28;20036;-71
2023/10/19 11:20:22;;;;;;;25.48;4.43;;;18.90;93.90;;;;;;4993034;28;20637;-72
2023/10/19 11:22:50;;;;;;;23.00;3.70;;;18.80;93.70;;;;;;5001399;28;20037;-74
2023/10/19 11:25:20;;;;;;;28.35;4.20;;;18.80;94.00;;;;;;4992670;28;20033;-75
2023/10/19 11:27:47;;;;;;;29.95;3.65;;;18.70;93.90;;;;;;5002332;28;20416;-72
2023/10/19 11:30:13;;;;;;;25.38;4.40;;;18.80;94.10;;;;;;4998008;28;20037;-71
2023/10/19 11:32:39;;;;;;;30.60;5.40;;;18.90;93.50;;;;;;5004608;28;20041;-72
2023/10/19 11:35:07;;;;;;;22.38;2.75;;;19.00;93.50;;;;;;4995845;28;20037;-74
2023/10/19 11:37:52;;;;;;;31.77;3.90;;;18.80;93.80;;;;;;5005282;28;20132;-72
2023/10/19 11:40:19;;;;;;;30.80;3.75;;;18.60;94.20;;;;;;4990239;28;20413;-74
2023/10/19 11:42:45;;;;;;;32.40;4.18;;;18.50;94.40;;;;;;5015211;28;20034;-71
2023/10/19 11:45:11;;;;;;;27.67;4.30;;;18.50;94.60;;;;;;4990225;28;20034;-74
2023/10/19 11:47:37;;;;;;;28.63;3.78;;;18.50;94.10;;;;;;4999233;28;20033;-73
2023/10/19 11:50:03;;;;;;;25.40;3.55;;;18.50;94.40;;;;;;4995730;28;20053;-73
2023/10/19 11:52:30;;;;;;;22.95;3.03;;;18.40;94.60;;;;;;4998414;28;20098;-72
2023/10/19 11:54:56;;;;;;;20.48;2.85;;;18.40;94.70;;;;;;5014048;28;20029;-72
2023/10/19 11:57:22;;;;;;;22.98;3.35;;;18.40;94.20;;;;;;4995021;28;20388;-73
2023/10/19 11:59:52;;;;;;;28.30;3.63;;;18.40;94.40;;;;;;5000052;28;20026;-73
2023/10/19 12:02:19;;;;;;;18.60;3.25;;;18.40;94.50;;;;;;5001013;28;20080;-73
2023/10/19 12:04:45;;;;;;;27.40;3.00;;;18.40;94.50;;;;;;5014612;28;20025;-73
2023/10/19 12:07:11;;;;;;;30.60;3.30;;;18.20;94.70;;;;;;4992776;28;20042;-73
2023/10/19 12:09:37;;;;;;;21.45;3.75;;;18.10;95.00;;;;;;5008268;28;20498;-73
2023/10/19 12:12:05;;;;;;;23.45;3.80;;;18.50;95.70;;;;;;4989486;28;21185;-73
2023/10/19 12:14:34;;;;;;;22.77;3.93;;;19.10;95.00;;;;;;5010819;28;20060;-72
2023/10/19 12:17:01;;;;;;;23.87;3.40;;;19.10;93.50;;;;;;4998666;28;20052;-74
2023/10/19 12:19:31;;;;;;;24.45;3.53;;;19.20;93.60;;;;;;5004449;28;20057;-74
2023/10/19 12:21:56;;;;;;;;;;;19.40;92.90;;;;;;5000362;28;20133;-74
2023/10/19 12:24:23;;;;;;;19.52;2.90;;;19.40;93.20;;;;;;5011883;28;19927;-74
2023/10/19 12:26:48;;;;;;;32.90;4.60;;;19.30;92.70;;;;;;4995663;28;20314;-74
2023/10/19 12:29:17;;;;;;;23.08;2.67;;;19.40;92.50;;;;;;5006950;28;20488;-72
2023/10/19 12:31:43;;;;;;;23.23;3.40;;;19.30;92.70;;;;;;4988612;28;20649;-74
2023/10/19 12:34:11;;;;;;;26.08;4.13;;;19.20;92.80;;;;;;5006135;28;20037;-74
2023/10/19 12:36:37;;;;;;;28.33;4.22;;;19.10;93.10;;;;;;5004443;28;20091;-73
2023/10/19 12:39:06;;;;;;;24.08;3.22;;;19.30;92.90;;;;;;5008280;28;20021;-73
2023/10/19 12:41:32;;;;;;;25.40;4.03;;;19.20;92.90;;;;;;5004700;28;20648;-71
2023/10/19 12:43:58;;;;;;;16.52;3.17;;;19.30;93.00;;;;;;4999566;28;20061;-75
2023/10/19 12:46:24;;;;;;;23.15;3.25;;;19.30;92.70;;;;;;5003190;28;20055;-73
2023/10/19 12:48:51;;;;;;;25.13;3.75;;;19.40;92.60;;;;;;4997536;28;20033;-75
2023/10/19 12:51:23;;;;;;;28.17;3.65;;;19.50;92.80;;;;;;5011075;28;20665;-74